Time;durP1;ratioP1;P1;durP2;ratioP2;P2;SDS_P1;SDS_P2;PMS_P1;PMS_P2;Temp;Humidity;BMP_temperature;BMP_pressure;BME280_temperature;BME280_humidity;BME280_pressure;Samples;Min_cycle;Max_cycle;Signal;HPM_P1;HPM_P2
2021/09/18 00:00:03;;;;;;;;;13.33;11.00;;;;;;;;5100092;27;47079;-80
2021/09/18 00:02:28;;;;;;;;;10.50;10.50;;;;;;;;5087390;27;45703;-80
2021/09/18 00:04:53;;;;;;;;;10.00;10.00;;;;;;;;5089644;27;45705;-80
2021/09/18 00:07:19;;;;;;;;;12.67;11.00;;;;;;;;5096117;27;45777;-80
2021/09/18 00:09:44;;;;;;;;;13.33;13.33;;;;;;;;5090244;27;45520;-80
2021/09/18 00:12:09;;;;;;;;;14.00;13.67;;;;;;;;5096955;27;45488;-80
2021/09/18 00:14:37;;;;;;;;;15.67;13.33;;;;;;;;5096257;27;45470;-80
2021/09/18 00:17:03;;;;;;;;;12.00;11.25;;;;;;;;5089558;27;45556;-80
2021/09/18 00:19:28;;;;;;;;;15.50;14.00;;;;;;;;5094174;27;45465;-80
2021/09/18 00:21:53;;;;;;;;;17.67;11.33;;;;;;;;5095280;27;45478;-80
2021/09/18 00:24:18;;;;;;;;;14.00;11.67;;;;;;;;5097121;27;45828;-80
2021/09/18 00:26:44;;;;;;;;;14.33;12.00;;;;;;;;5096469;27;45392;-80
2021/09/18 00:29:09;;;;;;;;;11.67;11.67;;;;;;;;5096058;27;45927;-80
2021/09/18 00:31:34;;;;;;;;;17.33;14.00;;;;;;;;5100848;27;45689;-80
2021/09/18 00:33:59;;;;;;;;;15.25;12.00;;;;;;;;5096420;27;45384;-80
2021/09/18 00:36:25;;;;;;;;;11.67;11.67;;;;;;;;5095823;27;45490;-80
2021/09/18 00:38:50;;;;;;;;;15.00;13.00;;;;;;;;5112681;27;47322;-80
2021/09/18 00:41:15;;;;;;;;;16.75;15.00;;;;;;;;5095525;27;45675;-80
2021/09/18 00:43:41;;;;;;;;;17.50;15.00;;;;;;;;5098123;27;45501;-80
2021/09/18 00:46:06;;;;;;;;;22.33;17.67;;;;;;;;5093510;27;45545;-80
2021/09/18 00:48:31;;;;;;;;;22.00;18.67;;;;;;;;5097375;27;46154;-80
2021/09/18 00:50:56;;;;;;;;;22.75;19.50;;;;;;;;5097681;27;45674;-80
2021/09/18 00:53:22;;;;;;;;;22.67;19.33;;;;;;;;5093111;27;45764;-80
2021/09/18 00:55:48;;;;;;;;;19.75;16.00;;;;;;;;5093742;27;45591;-80
2021/09/18 00:58:13;;;;;;;;;19.00;17.00;;;;;;;;5104107;27;46774;-80
2021/09/18 01:00:38;;;;;;;;;18.67;18.00;;;;;;;;5104140;27;45715;-80
2021/09/18 01:03:03;;;;;;;;;21.33;15.00;;;;;;;;5097709;27;45344;-80
2021/09/18 01:05:31;;;;;;;;;20.33;15.33;;;;;;;;5094135;27;45529;-80
2021/09/18 01:07:59;;;;;;;;;12.00;10.00;;;;;;;;5093999;27;46383;-80
2021/09/18 01:10:24;;;;;;;;;18.00;17.25;;;;;;;;5097887;27;45876;-80
2021/09/18 01:13:06;;;;;;;;;21.50;18.25;;;;;;;;5096928;27;45545;-80
2021/09/18 01:15:32;;;;;;;;;16.00;16.00;;;;;;;;5099036;27;45357;-80
2021/09/18 01:17:58;;;;;;;;;20.50;17.50;;;;;;;;5098214;27;46194;-80
2021/09/18 01:20:24;;;;;;;;;28.25;21.00;;;;;;;;5093292;27;45411;-80
2021/09/18 01:22:51;;;;;;;;;21.50;19.75;;;;;;;;5094244;27;45651;-80
2021/09/18 01:25:16;;;;;;;;;25.25;20.00;;;;;;;;5103050;27;45553;-80
2021/09/18 01:27:44;;;;;;;;;27.33;21.00;;;;;;;;5098835;27;45512;-80
2021/09/18 01:30:15;;;;;;;;;20.75;18.75;;;;;;;;5093609;27;45870;-80
2021/09/18 01:32:41;;;;;;;;;23.50;19.75;;;;;;;;5096379;27;45547;-80
2021/09/18 01:35:06;;;;;;;;;24.50;18.75;;;;;;;;5093809;27;45560;-80
2021/09/18 01:37:32;;;;;;;;;21.50;18.50;;;;;;;;5095894;27;45586;-80
2021/09/18 01:39:57;;;;;;;;;26.67;21.67;;;;;;;;5098119;27;45560;-81
2021/09/18 01:42:22;;;;;;;;;25.00;19.67;;;;;;;;5090869;27;45820;-80
2021/09/18 01:44:47;;;;;;;;;24.00;19.00;;;;;;;;5095498;27;45527;-80
2021/09/18 01:47:12;;;;;;;;;24.33;20.33;;;;;;;;5094213;27;45932;-80
2021/09/18 01:49:38;;;;;;;;;28.67;21.67;;;;;;;;5094676;27;45787;-80
2021/09/18 01:52:30;;;;;;;;;19.33;18.67;;;;;;;;5097925;27;45476;-80
2021/09/18 01:54:54;;;;;;;;;24.25;19.00;;;;;;;;5093692;27;45444;-80
2021/09/18 01:57:19;;;;;;;;;24.67;18.67;;;;;;;;5085281;27;45460;-80
2021/09/18 01:59:44;;;;;;;;;22.00;18.67;;;;;;;;5089629;27;47300;-80
2021/09/18 02:02:10;;;;;;;;;18.00;17.67;;;;;;;;5097084;27;45507;-80
2021/09/18 02:04:35;;;;;;;;;22.33;22.33;;;;;;;;5096230;27;45468;-80
2021/09/18 02:07:00;;;;;;;;;22.67;20.00;;;;;;;;5098853;27;46318;-80
2021/09/18 02:09:25;;;;;;;;;24.00;20.67;;;;;;;;5095833;27;45722;-80
2021/09/18 02:11:50;;;;;;;;;29.67;25.33;;;;;;;;5097112;27;45480;-80
2021/09/18 02:14:16;;;;;;;;;23.00;22.67;;;;;;;;5093560;27;45647;-79
2021/09/18 02:16:41;;;;;;;;;30.33;23.00;;;;;;;;5093571;27;45575;-79
2021/09/18 02:19:06;;;;;;;;;29.00;26.00;;;;;;;;5099580;27;45560;-79
2021/09/18 02:21:31;;;;;;;;;26.67;23.67;;;;;;;;5095433;27;45493;-80
2021/09/18 02:23:57;;;;;;;;;21.75;21.50;;;;;;;;5097685;27;45797;-80
2021/09/18 02:26:22;;;;;;;;;23.33;21.33;;;;;;;;5093330;27;48323;-80
2021/09/18 02:28:47;;;;;;;;;24.00;20.33;;;;;;;;5093614;27;45485;-80
2021/09/18 02:31:12;;;;;;;;;21.33;20.00;;;;;;;;5098391;27;45446;-80
2021/09/18 02:33:38;;;;;;;;;27.00;21.67;;;;;;;;5090545;27;45573;-79
2021/09/18 02:36:03;;;;;;;;;31.67;26.67;;;;;;;;5090631;27;46452;-80
2021/09/18 02:38:28;;;;;;;;;32.00;25.00;;;;;;;;5097046;27;45653;-83
2021/09/18 02:40:53;;;;;;;;;30.75;30.50;;;;;;;;5090245;27;45579;-80
2021/09/18 02:43:19;;;;;;;;;29.33;20.67;;;;;;;;5099466;27;45747;-80
2021/09/18 02:45:44;;;;;;;;;27.00;23.00;;;;;;;;5087722;27;46317;-77
2021/09/18 02:48:10;;;;;;;;;24.50;23.00;;;;;;;;5094955;27;45499;-79
2021/09/18 02:50:36;;;;;;;;;26.75;23.00;;;;;;;;5091904;27;46087;-80
2021/09/18 02:53:01;;;;;;;;;22.75;22.25;;;;;;;;5091821;27;45437;-80
2021/09/18 02:55:26;;;;;;;;;28.50;25.00;;;;;;;;5096483;27;46954;-80
2021/09/18 02:57:52;;;;;;;;;26.50;22.75;;;;;;;;5112529;27;45474;-80
2021/09/18 03:00:17;;;;;;;;;28.75;26.50;;;;;;;;5095421;27;45585;-80
2021/09/18 03:02:42;;;;;;;;;24.75;23.50;;;;;;;;5097990;27;45365;-81
2021/09/18 03:05:08;;;;;;;;;35.50;28.00;;;;;;;;5088284;27;46456;-81
2021/09/18 03:07:34;;;;;;;;;31.00;26.75;;;;;;;;5105743;27;45720;-80
2021/09/18 03:09:59;;;;;;;;;41.00;30.33;;;;;;;;5101310;27;45593;-78
2021/09/18 03:12:24;;;;;;;;;30.75;28.50;;;;;;;;5096499;27;45375;-80
2021/09/18 03:14:49;;;;;;;;;36.67;31.33;;;;;;;;5096542;27;47782;-80
2021/09/18 03:17:15;;;;;;;;;28.50;27.00;;;;;;;;5095279;27;45498;-80
2021/09/18 03:19:41;;;;;;;;;27.00;25.00;;;;;;;;5093390;27;45595;-80
2021/09/18 03:22:06;;;;;;;;;27.25;23.50;;;;;;;;5097478;27;45531;-81
2021/09/18 03:24:31;;;;;;;;;28.25;24.50;;;;;;;;5093599;27;47426;-80
2021/09/18 03:26:57;;;;;;;;;32.00;29.67;;;;;;;;5095273;27;47132;-80
2021/09/18 03:29:22;;;;;;;;;32.33;28.00;;;;;;;;5090392;27;45603;-80
2021/09/18 03:31:47;;;;;;;;;27.25;23.25;;;;;;;;5092622;27;45523;-81
2021/09/18 03:34:13;;;;;;;;;29.75;28.00;;;;;;;;5098517;27;46186;-81
2021/09/18 03:36:38;;;;;;;;;31.00;29.00;;;;;;;;5095257;27;45615;-81
2021/09/18 03:39:03;;;;;;;;;29.00;27.75;;;;;;;;5097073;27;45508;-80
2021/09/18 03:41:29;;;;;;;;;30.50;28.50;;;;;;;;5105606;27;45479;-81
2021/09/18 03:43:54;;;;;;;;;32.25;28.50;;;;;;;;5093477;27;45920;-80
2021/09/18 03:46:19;;;;;;;;;31.00;27.00;;;;;;;;5096782;27;45450;-80
2021/09/18 03:48:45;;;;;;;;;25.50;25.50;;;;;;;;5083947;27;45514;-80
2021/09/18 03:51:10;;;;;;;;;26.00;24.25;;;;;;;;5101710;27;45523;-80
2021/09/18 03:53:35;;;;;;;;;27.00;25.25;;;;;;;;5096372;27;47219;-80
2021/09/18 03:56:01;;;;;;;;;35.00;27.33;;;;;;;;5085238;27;45470;-80
2021/09/18 03:58:26;;;;;;;;;27.67;25.33;;;;;;;;5084159;27;45561;-80
2021/09/18 04:00:51;;;;;;;;;36.25;30.25;;;;;;;;5086796;27;45331;-79
2021/09/18 04:03:17;;;;;;;;;29.00;29.00;;;;;;;;5081829;27;48080;-80
2021/09/18 04:05:42;;;;;;;;;28.67;26.67;;;;;;;;5082691;27;45574;-80
2021/09/18 04:08:08;;;;;;;;;27.25;24.75;;;;;;;;5089868;27;45537;-80
2021/09/18 04:10:34;;;;;;;;;26.00;26.00;;;;;;;;5081723;27;45430;-80
2021/09/18 04:12:59;;;;;;;;;30.00;26.50;;;;;;;;5082212;27;45972;-80
2021/09/18 04:15:24;;;;;;;;;30.00;26.25;;;;;;;;5085770;27;45475;-80
2021/09/18 04:17:50;;;;;;;;;29.00;25.75;;;;;;;;5081066;27;47360;-80
2021/09/18 04:20:15;;;;;;;;;34.00;27.67;;;;;;;;5081889;27;45384;-80
2021/09/18 04:22:40;;;;;;;;;31.00;26.33;;;;;;;;5084404;27;46339;-80
2021/09/18 04:25:06;;;;;;;;;31.67;26.67;;;;;;;;5087785;27;45497;-80
2021/09/18 04:27:31;;;;;;;;;28.75;24.25;;;;;;;;5086937;27;45414;-81
2021/09/18 04:29:56;;;;;;;;;31.00;28.00;;;;;;;;5075888;27;45556;-80
2021/09/18 04:32:21;;;;;;;;;30.00;26.67;;;;;;;;5088934;27;45683;-80
2021/09/18 04:34:47;;;;;;;;;30.33;24.33;;;;;;;;5091503;27;45484;-80
2021/09/18 04:37:12;;;;;;;;;24.67;23.00;;;;;;;;5081893;27;45646;-80
2021/09/18 04:39:37;;;;;;;;;32.00;26.00;;;;;;;;5086718;27;45523;-80
2021/09/18 04:42:02;;;;;;;;;28.67;23.33;;;;;;;;5102571;27;47637;-80
2021/09/18 04:44:28;;;;;;;;;26.75;23.00;;;;;;;;5089538;27;46485;-80
2021/09/18 04:46:53;;;;;;;;;24.75;21.75;;;;;;;;5086665;27;45816;-80
2021/09/18 04:49:18;;;;;;;;;24.33;21.33;;;;;;;;5097207;27;45480;-80
2021/09/18 04:51:43;;;;;;;;;23.75;20.00;;;;;;;;5093745;27;46165;-80
2021/09/18 04:54:09;;;;;;;;;29.25;21.00;;;;;;;;5091311;27;45487;-80
2021/09/18 04:56:34;;;;;;;;;26.00;22.33;;;;;;;;5093246;27;45711;-80
2021/09/18 04:59:01;;;;;;;;;27.50;22.50;;;;;;;;5091949;27;45672;-79
2021/09/18 05:01:26;;;;;;;;;26.00;20.75;;;;;;;;5093920;27;45410;-80
2021/09/18 05:03:52;;;;;;;;;29.67;24.67;;;;;;;;5096614;27;45398;-79
2021/09/18 05:06:17;;;;;;;;;26.00;22.00;;;;;;;;5092470;27;45536;-80
2021/09/18 05:08:42;;;;;;;;;22.00;20.00;;;;;;;;5092795;27;45763;-80
2021/09/18 05:11:07;;;;;;;;;26.33;22.67;;;;;;;;5093158;27;46160;-79
2021/09/18 05:13:33;;;;;;;;;28.50;23.25;;;;;;;;5101403;27;45332;-80
2021/09/18 05:15:58;;;;;;;;;25.33;21.00;;;;;;;;5094351;27;45413;-79
2021/09/18 05:18:23;;;;;;;;;23.00;20.67;;;;;;;;5099205;27;45326;-82
2021/09/18 05:20:48;;;;;;;;;28.50;24.00;;;;;;;;5098151;27;45485;-81
2021/09/18 05:23:14;;;;;;;;;25.33;22.00;;;;;;;;5094738;27;45667;-80
2021/09/18 05:25:39;;;;;;;;;27.50;22.00;;;;;;;;5100489;27;45425;-80
2021/09/18 05:28:04;;;;;;;;;23.67;22.67;;;;;;;;5096679;27;45437;-79
2021/09/18 05:30:30;;;;;;;;;28.75;20.75;;;;;;;;5098650;27;45788;-79
2021/09/18 05:32:55;;;;;;;;;20.00;18.75;;;;;;;;5097100;27;45842;-79
2021/09/18 05:35:20;;;;;;;;;24.25;22.00;;;;;;;;5093149;27;45514;-80
2021/09/18 05:37:46;;;;;;;;;22.33;18.33;;;;;;;;5099618;27;45710;-79
2021/09/18 05:40:11;;;;;;;;;19.25;19.25;;;;;;;;5110430;27;46264;-79
2021/09/18 05:42:37;;;;;;;;;18.00;17.25;;;;;;;;5098061;27;45413;-83
2021/09/18 05:45:03;;;;;;;;;21.00;18.25;;;;;;;;5097457;27;46028;-83
2021/09/18 05:47:29;;;;;;;;;21.00;19.00;;;;;;;;5094226;27;45576;-83
2021/09/18 05:49:54;;;;;;;;;22.67;20.33;;;;;;;;5097425;27;46330;-84
2021/09/18 05:52:19;;;;;;;;;24.33;21.00;;;;;;;;5100123;27;45563;-82
2021/09/18 05:54:44;;;;;;;;;26.75;17.75;;;;;;;;5098253;27;45501;-82
2021/09/18 05:57:09;;;;;;;;;19.00;19.00;;;;;;;;5093568;27;45831;-82
2021/09/18 05:59:35;;;;;;;;;25.00;19.00;;;;;;;;5089577;27;46676;-81
2021/09/18 06:02:00;;;;;;;;;26.00;21.50;;;;;;;;5091736;27;45549;-82
2021/09/18 06:04:25;;;;;;;;;25.00;21.33;;;;;;;;5094627;27;45536;-82
2021/09/18 06:06:51;;;;;;;;;24.33;17.67;;;;;;;;5096075;27;45687;-82
2021/09/18 06:09:16;;;;;;;;;17.25;16.75;;;;;;;;5100508;27;48753;-82
2021/09/18 06:11:41;;;;;;;;;21.67;18.33;;;;;;;;5085248;27;46135;-82
2021/09/18 06:14:06;;;;;;;;;18.67;18.33;;;;;;;;5093392;27;45510;-82
2021/09/18 06:16:32;;;;;;;;;26.00;19.00;;;;;;;;5097018;27;45736;-82
2021/09/18 06:18:57;;;;;;;;;18.75;15.00;;;;;;;;5097271;27;45878;-82
2021/09/18 06:21:22;;;;;;;;;19.00;17.75;;;;;;;;5096781;27;45381;-82
2021/09/18 06:23:48;;;;;;;;;17.25;15.25;;;;;;;;5109638;27;45366;-82
2021/09/18 06:26:16;;;;;;;;;22.00;18.25;;;;;;;;5096937;27;45652;-82
2021/09/18 06:28:42;;;;;;;;;18.25;15.50;;;;;;;;5098911;27;48216;-82
2021/09/18 06:31:07;;;;;;;;;19.75;16.50;;;;;;;;5094280;27;45555;-82
2021/09/18 06:33:32;;;;;;;;;17.00;14.00;;;;;;;;5095344;27;45522;-83
2021/09/18 06:35:57;;;;;;;;;13.25;13.00;;;;;;;;5096253;27;45458;-82
2021/09/18 06:38:23;;;;;;;;;17.33;13.67;;;;;;;;5098450;27;45691;-82
2021/09/18 06:40:49;;;;;;;;;14.67;14.67;;;;;;;;5094004;27;45421;-82
2021/09/18 06:43:15;;;;;;;;;17.75;14.25;;;;;;;;5096812;27;45381;-82
2021/09/18 06:45:40;;;;;;;;;13.50;13.50;;;;;;;;5097486;27;45543;-82
2021/09/18 06:48:05;;;;;;;;;15.33;13.33;;;;;;;;5095923;27;45312;-82
2021/09/18 06:50:30;;;;;;;;;14.33;11.33;;;;;;;;5097392;27;45488;-83
2021/09/18 06:52:55;;;;;;;;;16.00;13.00;;;;;;;;5092053;27;45493;-82
2021/09/18 06:55:21;;;;;;;;;14.67;13.00;;;;;;;;5097130;27;45786;-82
2021/09/18 06:57:46;;;;;;;;;13.25;12.50;;;;;;;;5094473;27;45518;-82
2021/09/18 07:00:11;;;;;;;;;14.67;12.33;;;;;;;;5092887;27;45672;-82
2021/09/18 07:02:37;;;;;;;;;8.00;8.00;;;;;;;;5090500;27;45466;-81
2021/09/18 07:05:02;;;;;;;;;12.33;11.33;;;;;;;;5089571;27;45548;-80
2021/09/18 07:07:29;;;;;;;;;12.25;9.00;;;;;;;;5098129;27;45556;-81
2021/09/18 07:09:55;;;;;;;;;13.75;11.25;;;;;;;;5095790;27;46192;-80
2021/09/18 07:12:20;;;;;;;;;14.50;13.00;;;;;;;;5092595;27;45505;-81
2021/09/18 07:14:45;;;;;;;;;14.50;11.25;;;;;;;;5086756;27;45643;-82
2021/09/18 07:17:10;;;;;;;;;15.67;12.67;;;;;;;;5078877;27;47115;-82
2021/09/18 07:19:36;;;;;;;;;11.00;10.33;;;;;;;;5083198;27;45459;-82
2021/09/18 07:22:01;;;;;;;;;10.67;9.00;;;;;;;;5077950;27;46089;-83
2021/09/18 07:24:26;;;;;;;;;13.25;9.50;;;;;;;;5076776;27;45669;-84
2021/09/18 07:26:52;;;;;;;;;11.75;9.00;;;;;;;;5079528;27;46105;-83
2021/09/18 07:29:17;;;;;;;;;11.50;10.25;;;;;;;;5084034;27;45562;-83
2021/09/18 07:31:42;;;;;;;;;13.33;11.00;;;;;;;;5078319;27;45453;-82
2021/09/18 07:34:07;;;;;;;;;14.00;13.00;;;;;;;;5082649;27;45667;-83
2021/09/18 07:36:33;;;;;;;;;13.33;11.00;;;;;;;;5086199;27;45622;-83
2021/09/18 07:38:58;;;;;;;;;12.75;11.00;;;;;;;;5088166;27;45434;-83
2021/09/18 07:41:23;;;;;;;;;10.00;9.00;;;;;;;;5086014;27;45421;-83
2021/09/18 07:43:48;;;;;;;;;14.00;11.33;;;;;;;;5089309;27;45594;-83
2021/09/18 07:46:13;;;;;;;;;11.33;10.00;;;;;;;;5092838;27;45574;-84
2021/09/18 07:48:39;;;;;;;;;11.67;10.33;;;;;;;;5083034;27;45612;-83
2021/09/18 07:51:04;;;;;;;;;13.00;10.33;;;;;;;;5088996;27;45652;-83
2021/09/18 07:53:29;;;;;;;;;10.00;9.33;;;;;;;;5088227;27;45473;-83
2021/09/18 07:55:54;;;;;;;;;8.67;8.67;;;;;;;;5078724;27;45565;-90
2021/09/18 07:58:20;;;;;;;;;9.33;8.33;;;;;;;;5079042;27;45497;-82
2021/09/18 08:00:46;;;;;;;;;10.00;9.25;;;;;;;;5083332;27;45789;-83
2021/09/18 08:03:14;;;;;;;;;11.25;7.75;;;;;;;;5083683;27;45869;-82
2021/09/18 08:05:39;;;;;;;;;9.25;8.75;;;;;;;;5086631;27;45430;-83
2021/09/18 08:08:05;;;;;;;;;10.33;9.00;;;;;;;;5087891;27;45481;-83
2021/09/18 08:10:30;;;;;;;;;10.25;9.25;;;;;;;;5087949;27;45526;-82
2021/09/18 08:12:56;;;;;;;;;10.00;9.25;;;;;;;;5085211;27;45628;-81
2021/09/18 08:15:23;;;;;;;;;10.00;10.00;;;;;;;;5082252;27;45943;-81
2021/09/18 08:17:48;;;;;;;;;10.75;9.00;;;;;;;;5085206;27;45497;-80
2021/09/18 08:20:14;;;;;;;;;10.50;9.00;;;;;;;;5086392;27;45486;-81
2021/09/18 08:22:40;;;;;;;;;9.00;9.00;;;;;;;;5086961;27;45489;-80
2021/09/18 08:25:06;;;;;;;;;13.50;12.25;;;;;;;;5089545;27;45406;-69
2021/09/18 08:27:31;;;;;;;;;12.75;11.00;;;;;;;;5082477;27;45511;-65
2021/09/18 08:29:56;;;;;;;;;12.00;11.00;;;;;;;;5080355;27;49052;-66
2021/09/18 08:32:21;;;;;;;;;11.67;8.67;;;;;;;;5077511;27;45596;-65
2021/09/18 08:34:47;;;;;;;;;9.50;8.75;;;;;;;;5083834;27;46310;-68
2021/09/18 08:37:12;;;;;;;;;7.67;7.67;;;;;;;;5086844;27;45359;-65
2021/09/18 08:39:38;;;;;;;;;8.67;8.00;;;;;;;;5081997;27;45482;-66
2021/09/18 08:42:04;;;;;;;;;9.25;8.75;;;;;;;;5084424;27;45309;-67
2021/09/18 08:44:30;;;;;;;;;8.25;8.00;;;;;;;;5085846;27;46178;-66
2021/09/18 08:46:55;;;;;;;;;10.00;7.75;;;;;;;;5091146;27;45664;-66
2021/09/18 08:49:21;;;;;;;;;7.67;7.67;;;;;;;;5090418;27;45489;-66
2021/09/18 08:51:46;;;;;;;;;9.00;9.00;;;;;;;;5084832;27;45652;-66
2021/09/18 08:54:11;;;;;;;;;9.25;8.75;;;;;;;;5089004;27;46156;-71
2021/09/18 08:56:38;;;;;;;;;9.00;8.00;;;;;;;;5089758;27;45636;-66
2021/09/18 08:59:03;;;;;;;;;7.25;6.75;;;;;;;;5091421;27;53703;-66
2021/09/18 09:01:29;;;;;;;;;8.75;8.00;;;;;;;;5089324;27;45516;-67
2021/09/18 09:03:55;;;;;;;;;10.00;7.50;;;;;;;;5087362;27;45354;-66
2021/09/18 09:06:20;;;;;;;;;8.00;8.00;;;;;;;;5085142;27;45376;-66
2021/09/18 09:08:56;;;;;;;;;8.67;8.33;;;;;;;;5087503;27;45562;-66
2021/09/18 09:11:23;;;;;;;;;8.00;8.00;;;;;;;;5089667;27;45866;-66
2021/09/18 09:13:54;;;;;;;;;8.50;6.25;;;;;;;;5086909;27;46016;-66
2021/09/18 09:16:20;;;;;;;;;9.00;7.25;;;;;;;;5091853;27;45747;-66
2021/09/18 09:18:46;;;;;;;;;8.25;8.25;;;;;;;;5085618;27;45926;-66
2021/09/18 09:21:13;;;;;;;;;11.75;7.75;;;;;;;;5085476;27;45456;-66
2021/09/18 09:23:39;;;;;;;;;7.75;5.25;;;;;;;;5090994;27;45529;-66
2021/09/18 09:26:04;;;;;;;;;7.75;7.50;;;;;;;;5090729;27;46375;-66
2021/09/18 09:28:32;;;;;;;;;8.00;8.00;;;;;;;;5092718;27;46237;-68
2021/09/18 09:31:15;;;;;;;;;7.50;7.50;;;;;;;;5086927;27;45666;-66
2021/09/18 09:33:57;;;;;;;;;16.25;14.00;;;;;;;;5085854;27;46078;-66
2021/09/18 09:36:22;;;;;;;;;7.25;7.00;;;;;;;;5090881;27;45865;-70
2021/09/18 09:38:51;;;;;;;;;8.67;7.00;;;;;;;;5088472;27;45664;-66
2021/09/18 09:41:35;;;;;;;;;9.25;8.25;;;;;;;;5089273;27;45594;-65
2021/09/18 09:44:10;;;;;;;;;9.00;7.00;;;;;;;;5079092;27;46941;-65
2021/09/18 09:46:36;;;;;;;;;7.75;7.50;;;;;;;;5094681;27;45930;-65
2021/09/18 09:49:06;;;;;;;;;6.00;6.00;;;;;;;;5079963;27;45848;-65
2021/09/18 09:51:31;;;;;;;;;9.25;6.00;;;;;;;;5087201;27;45284;-65
2021/09/18 09:54:13;;;;;;;;;8.25;8.25;;;;;;;;5084649;27;45447;-65
2021/09/18 09:56:38;;;;;;;;;9.50;9.50;;;;;;;;5087914;27;45391;-65
2021/09/18 09:59:04;;;;;;;;;6.33;6.33;;;;;;;;5090163;27;45451;-65
2021/09/18 10:01:29;;;;;;;;;6.33;6.00;;;;;;;;5088323;27;45528;-65
2021/09/18 10:03:54;;;;;;;;;7.50;7.50;;;;;;;;5086157;27;46210;-64
2021/09/18 10:06:20;;;;;;;;;7.00;7.00;;;;;;;;5090052;27;45499;-65
2021/09/18 10:08:48;;;;;;;;;7.33;7.33;;;;;;;;5088101;27;45327;-65
2021/09/18 10:11:15;;;;;;;;;8.00;6.25;;;;;;;;5089833;27;45538;-65
2021/09/18 10:13:41;;;;;;;;;8.00;7.00;;;;;;;;5087088;27;46104;-65
2021/09/18 10:16:06;;;;;;;;;8.00;6.25;;;;;;;;5086857;27;45495;-65
2021/09/18 10:18:34;;;;;;;;;6.00;6.00;;;;;;;;5088836;27;45502;-65
2021/09/18 10:23:26;;;;;;;;;7.25;7.25;;;;;;;;5096234;27;46353;-65
2021/09/18 10:25:54;;;;;;;;;8.25;5.50;;;;;;;;5079884;27;45738;-66
2021/09/18 10:28:29;;;;;;;;;7.00;7.00;;;;;;;;5099117;27;45805;-66
2021/09/18 10:30:55;;;;;;;;;7.25;6.25;;;;;;;;5089070;27;46176;-66
2021/09/18 10:33:49;;;;;;;;;9.75;8.75;;;;;;;;5086982;27;46607;-66
2021/09/18 10:36:15;;;;;;;;;6.75;6.75;;;;;;;;5083853;27;45525;-65
2021/09/18 10:38:42;;;;;;;;;7.00;7.00;;;;;;;;5088753;27;45653;-66
2021/09/18 10:41:15;;;;;;;;;9.00;7.25;;;;;;;;5085276;27;45566;-66
2021/09/18 10:44:00;;;;;;;;;8.00;8.00;;;;;;;;5090287;27;45525;-65
2021/09/18 10:46:42;;;;;;;;;10.50;8.25;;;;;;;;5089880;27;45777;-66
2021/09/18 10:49:26;;;;;;;;;12.25;12.25;;;;;;;;5088331;27;45765;-66
2021/09/18 10:51:54;;;;;;;;;12.50;11.00;;;;;;;;5087346;27;45541;-66
2021/09/18 10:54:19;;;;;;;;;15.50;14.25;;;;;;;;5083994;27;47217;-65
2021/09/18 10:56:58;;;;;;;;;10.75;10.75;;;;;;;;5088138;27;45788;-65
2021/09/18 10:59:42;;;;;;;;;8.25;8.25;;;;;;;;5104545;27;45430;-64
2021/09/18 11:02:26;;;;;;;;;7.50;7.50;;;;;;;;5077748;27;45563;-64
2021/09/18 11:04:51;;;;;;;;;7.50;7.50;;;;;;;;5088491;27;46410;-65
2021/09/18 11:07:35;;;;;;;;;5.00;5.00;;;;;;;;5085991;27;45879;-65
2021/09/18 11:10:00;;;;;;;;;10.25;7.00;;;;;;;;5089088;27;45714;-65
2021/09/18 11:12:26;;;;;;;;;9.75;8.00;;;;;;;;5085808;27;45848;-65
2021/09/18 11:15:01;;;;;;;;;9.25;7.25;;;;;;;;5089809;27;45556;-65
2021/09/18 11:17:33;;;;;;;;;9.00;7.00;;;;;;;;5097507;27;45488;-65
2021/09/18 11:20:11;;;;;;;;;9.00;8.75;;;;;;;;5086643;27;45411;-66
2021/09/18 11:22:37;;;;;;;;;5.50;5.50;;;;;;;;5088142;27;45486;-66
2021/09/18 11:25:21;;;;;;;;;8.25;7.50;;;;;;;;5089868;27;46261;-65
2021/09/18 11:27:58;;;;;;;;;8.00;6.75;;;;;;;;5090376;27;45773;-65
2021/09/18 11:30:36;;;;;;;;;6.50;6.50;;;;;;;;5085871;27;45696;-65
2021/09/18 11:33:02;;;;;;;;;6.00;6.00;;;;;;;;5082467;27;45393;-65
2021/09/18 11:35:27;;;;;;;;;6.00;6.00;;;;;;;;5089294;27;45514;-65
2021/09/18 11:37:52;;;;;;;;;4.00;4.00;;;;;;;;5083811;27;45666;-65
2021/09/18 11:40:18;;;;;;;;;6.00;4.00;;;;;;;;5093518;27;45476;-66
2021/09/18 11:42:43;;;;;;;;;7.50;6.75;;;;;;;;5087409;27;45516;-66
2021/09/18 11:45:12;;;;;;;;;7.25;6.50;;;;;;;;5089069;27;45865;-66
2021/09/18 11:47:40;;;;;;;;;6.00;6.00;;;;;;;;5087449;27;45489;-66
2021/09/18 11:50:24;;;;;;;;;5.25;4.25;;;;;;;;5087234;27;45423;-65
2021/09/18 11:52:50;;;;;;;;;6.00;6.00;;;;;;;;5082354;27;45847;-65
2021/09/18 11:55:28;;;;;;;;;5.00;4.75;;;;;;;;5090880;27;47293;-65
2021/09/18 11:58:07;;;;;;;;;4.00;4.00;;;;;;;;5091178;27;45662;-65
2021/09/18 12:00:32;;;;;;;;;5.50;4.75;;;;;;;;5088227;27;45502;-66
2021/09/18 12:02:58;;;;;;;;;5.75;5.75;;;;;;;;5086811;27;45753;-66
2021/09/18 12:05:24;;;;;;;;;6.50;4.75;;;;;;;;5089436;27;45771;-65
2021/09/18 12:07:51;;;;;;;;;5.00;5.00;;;;;;;;5090078;27;45634;-66
2021/09/18 12:10:17;;;;;;;;;5.00;4.25;;;;;;;;5085703;27;45402;-66
2021/09/18 12:12:45;;;;;;;;;4.50;4.50;;;;;;;;5087021;27;45430;-66
2021/09/18 12:15:10;;;;;;;;;3.25;2.00;;;;;;;;5086749;27;51540;-67
2021/09/18 12:17:40;;;;;;;;;3.50;3.50;;;;;;;;5091624;27;45477;-65
2021/09/18 12:20:12;;;;;;;;;4.25;4.25;;;;;;;;5088085;27;46670;-65
2021/09/18 12:22:37;;;;;;;;;4.50;4.00;;;;;;;;5084084;27;45513;-65
2021/09/18 12:25:03;;;;;;;;;4.50;4.50;;;;;;;;5083871;27;45921;-65
2021/09/18 12:27:30;;;;;;;;;4.50;4.50;;;;;;;;5086295;27;45543;-65
2021/09/18 12:29:55;;;;;;;;;4.00;4.00;;;;;;;;5078507;27;45461;-66
2021/09/18 12:32:21;;;;;;;;;5.33;4.00;;;;;;;;5079907;27;45488;-62
2021/09/18 12:34:46;;;;;;;;;2.25;2.25;;;;;;;;5089223;27;47126;-63
2021/09/18 12:37:11;;;;;;;;;3.50;3.50;;;;;;;;5094771;27;45508;-62
2021/09/18 12:39:37;;;;;;;;;5.00;3.50;;;;;;;;5092610;27;45684;-62
2021/09/18 12:42:03;;;;;;;;;3.00;3.00;;;;;;;;5089394;27;45347;-62
2021/09/18 12:44:36;;;;;;;;;4.00;4.00;;;;;;;;5107500;27;48053;-62
2021/09/18 12:47:02;;;;;;;;;3.50;3.25;;;;;;;;5088758;27;45842;-62
2021/09/18 12:49:31;;;;;;;;;5.50;3.75;;;;;;;;5086812;27;45450;-61
2021/09/18 12:52:04;;;;;;;;;4.00;4.00;;;;;;;;5080622;27;45516;-62
2021/09/18 12:54:40;;;;;;;;;4.00;4.00;;;;;;;;5090234;27;46328;-62
2021/09/18 12:57:06;;;;;;;;;5.75;4.50;;;;;;;;5089038;27;45759;-63
2021/09/18 12:59:39;;;;;;;;;4.75;4.75;;;;;;;;5091795;27;45783;-67
2021/09/18 13:02:04;;;;;;;;;4.50;3.50;;;;;;;;5080815;27;45594;-68
2021/09/18 13:04:30;;;;;;;;;2.00;2.00;;;;;;;;5094677;27;46044;-72
2021/09/18 13:07:09;;;;;;;;;5.00;5.00;;;;;;;;5092903;27;45745;-70
2021/09/18 13:09:34;;;;;;;;;4.25;4.25;;;;;;;;5103446;27;45423;-71
2021/09/18 13:12:08;;;;;;;;;3.67;3.67;;;;;;;;5095742;27;45671;-71
2021/09/18 13:14:35;;;;;;;;;3.75;3.75;;;;;;;;5095016;27;46341;-72
2021/09/18 13:17:07;;;;;;;;;6.00;5.00;;;;;;;;5080972;27;45745;-70
2021/09/18 13:19:51;;;;;;;;;3.75;3.75;;;;;;;;5085463;27;45507;-72
2021/09/18 13:22:22;;;;;;;;;6.00;5.75;;;;;;;;5091158;27;45784;-71
2021/09/18 13:24:48;;;;;;;;;8.50;7.50;;;;;;;;5090302;27;45697;-71
2021/09/18 13:27:13;;;;;;;;;5.75;5.75;;;;;;;;5079419;27;45606;-68
2021/09/18 13:29:39;;;;;;;;;10.50;10.50;;;;;;;;5085624;27;45551;-70
2021/09/18 13:32:04;;;;;;;;;11.67;11.00;;;;;;;;5091688;27;46890;-65
2021/09/18 13:34:29;;;;;;;;;9.00;8.00;;;;;;;;5092067;27;46582;-66
2021/09/18 13:36:54;;;;;;;;;15.00;13.67;;;;;;;;5093551;27;45471;-65
2021/09/18 13:39:20;;;;;;;;;8.67;8.67;;;;;;;;5091443;27;45432;-64
2021/09/18 13:41:45;;;;;;;;;9.25;9.00;;;;;;;;5088187;27;45748;-64
2021/09/18 13:44:10;;;;;;;;;6.33;6.00;;;;;;;;5086856;27;45637;-64
2021/09/18 13:46:36;;;;;;;;;6.75;5.25;;;;;;;;5089321;27;45866;-64
2021/09/18 13:49:01;;;;;;;;;9.25;9.25;;;;;;;;5086125;27;45854;-81
2021/09/18 13:51:26;;;;;;;;;6.00;5.00;;;;;;;;5088623;27;45826;-80
2021/09/18 13:53:51;;;;;;;;;10.67;8.00;;;;;;;;5090122;27;45526;-80
2021/09/18 13:56:17;;;;;;;;;4.67;4.67;;;;;;;;5090594;27;46593;-80
2021/09/18 13:58:42;;;;;;;;;5.25;5.00;;;;;;;;5090844;27;45741;-80
2021/09/18 14:01:07;;;;;;;;;5.00;5.00;;;;;;;;5094034;27;45563;-80
2021/09/18 14:03:36;;;;;;;;;4.75;4.00;;;;;;;;5088934;27;47143;-79
2021/09/18 14:06:01;;;;;;;;;5.00;5.00;;;;;;;;5090105;27;45550;-79
2021/09/18 14:08:27;;;;;;;;;5.00;5.00;;;;;;;;5091948;27;45576;-79
2021/09/18 14:10:52;;;;;;;;;6.00;5.00;;;;;;;;5090581;27;45536;-80
2021/09/18 14:13:17;;;;;;;;;4.33;4.33;;;;;;;;5092061;27;46149;-80
2021/09/18 14:15:43;;;;;;;;;5.00;4.00;;;;;;;;5089545;27;45650;-79
2021/09/18 14:18:09;;;;;;;;;5.00;4.00;;;;;;;;5090648;27;45938;-79
2021/09/18 14:20:35;;;;;;;;;4.25;4.25;;;;;;;;5091293;27;45658;-80
2021/09/18 14:23:00;;;;;;;;;5.00;5.00;;;;;;;;5089642;27;46048;-79
2021/09/18 14:25:25;;;;;;;;;5.25;5.25;;;;;;;;5091241;27;45550;-77
2021/09/18 14:27:51;;;;;;;;;5.50;4.75;;;;;;;;5090727;27;45560;-80